createdAt,value
2023-05-14T00:00:10.798Z,16.55
2023-05-14T00:02:38.587Z,19.17
2023-05-14T00:05:07.268Z,23.92
2023-05-14T00:07:35.174Z,24.88
2023-05-14T00:10:03.009Z,19.30
2023-05-14T00:12:31.099Z,21.33
2023-05-14T00:15:00.754Z,16.55
2023-05-14T00:17:28.697Z,20.92
2023-05-14T00:19:56.561Z,23.08
2023-05-14T00:22:24.360Z,22.75
2023-05-14T00:24:52.104Z,17.45
2023-05-14T00:27:19.993Z,19.38
2023-05-14T00:29:47.948Z,20.30
2023-05-14T00:32:17.105Z,21.00
2023-05-14T00:34:44.880Z,21.50
2023-05-14T00:37:12.621Z,27.27
2023-05-14T00:39:40.416Z,23.17
2023-05-14T00:42:08.312Z,21.95
2023-05-14T00:44:36.813Z,19.70
2023-05-14T00:47:05.330Z,22.35
2023-05-14T00:49:35.320Z,26.25
2023-05-14T00:52:03.603Z,25.10
2023-05-14T00:54:31.868Z,28.38
2023-05-14T00:57:00.970Z,20.67
2023-05-14T00:59:28.898Z,22.25
2023-05-14T01:01:56.913Z,29.58
2023-05-14T01:04:25.115Z,23.40
2023-05-14T01:07:08.282Z,22.35
2023-05-14T01:09:43.682Z,24.77
2023-05-14T01:12:20.406Z,21.15
2023-05-14T01:14:55.849Z,23.13
2023-05-14T01:17:29.968Z,25.02
2023-05-14T01:19:58.771Z,25.33
2023-05-14T01:22:27.980Z,22.80
2023-05-14T01:24:56.063Z,22.05
2023-05-14T01:27:29.732Z,21.83
2023-05-14T01:30:04.161Z,20.67
2023-05-14T01:32:33.359Z,21.52
2023-05-14T01:35:02.377Z,22.00
2023-05-14T01:37:33.628Z,21.25
2023-05-14T01:40:02.250Z,24.25
2023-05-14T01:42:30.730Z,23.38
2023-05-14T01:44:59.085Z,21.80
2023-05-14T01:47:26.897Z,25.73
2023-05-14T01:49:54.683Z,23.80
2023-05-14T01:52:22.542Z,25.30
2023-05-14T01:54:51.731Z,23.08
2023-05-14T01:57:19.535Z,24.92
2023-05-14T01:59:47.349Z,23.52
2023-05-14T02:02:15.133Z,21.20
2023-05-14T02:04:42.983Z,25.15
2023-05-14T02:07:10.763Z,22.02
2023-05-14T02:09:38.707Z,22.52
2023-05-14T02:12:09.150Z,24.33
2023-05-14T02:14:37.017Z,23.75
2023-05-14T02:17:04.900Z,26.67
2023-05-14T02:19:32.734Z,25.67
2023-05-14T02:22:01.159Z,23.67
2023-05-14T02:24:29.038Z,24.15
2023-05-14T02:26:56.834Z,28.48
2023-05-14T02:29:26.273Z,23.27
2023-05-14T02:31:56.946Z,26.05
2023-05-14T02:34:24.984Z,28.63
2023-05-14T02:36:55.449Z,25.52
2023-05-14T02:39:23.858Z,22.95
2023-05-14T02:41:51.665Z,25.73
2023-05-14T02:44:19.445Z,21.98
2023-05-14T02:46:48.946Z,23.77
2023-05-14T02:49:16.760Z,25.17
2023-05-14T02:51:44.676Z,27.67
2023-05-14T02:54:12.506Z,28.38
2023-05-14T02:56:40.501Z,26.92
2023-05-14T02:59:08.259Z,23.70
2023-05-14T03:01:36.514Z,29.60
2023-05-14T03:04:06.533Z,24.85
2023-05-14T03:06:34.311Z,28.38
2023-05-14T03:09:02.087Z,29.00
2023-05-14T03:11:29.956Z,29.17
2023-05-14T03:13:57.851Z,26.45
2023-05-14T03:16:25.803Z,23.52
2023-05-14T03:18:53.734Z,24.38
2023-05-14T03:21:22.982Z,25.80
2023-05-14T03:23:50.887Z,26.92
2023-05-14T03:26:18.814Z,23.65
2023-05-14T03:28:46.865Z,24.23
2023-05-14T03:31:14.709Z,23.75
2023-05-14T03:33:43.536Z,23.55
2023-05-14T03:36:11.462Z,24.60
2023-05-14T03:38:40.721Z,26.25
2023-05-14T03:41:08.619Z,24.58
2023-05-14T03:43:36.674Z,21.45
2023-05-14T03:46:04.497Z,22.23
2023-05-14T03:48:32.679Z,26.17
2023-05-14T03:51:00.803Z,24.35
2023-05-14T03:53:28.917Z,22.08
2023-05-14T03:55:58.112Z,25.30
2023-05-14T03:58:28.642Z,24.73
2023-05-14T04:00:56.791Z,29.00
2023-05-14T04:03:25.079Z,21.50
2023-05-14T04:05:53.059Z,22.98
2023-05-14T04:08:20.932Z,25.98
2023-05-14T04:10:48.927Z,24.73
2023-05-14T04:13:18.207Z,24.00
2023-05-14T04:15:46.122Z,21.45
2023-05-14T04:18:14.109Z,19.90
2023-05-14T04:20:41.962Z,21.77
2023-05-14T04:23:09.761Z,19.13
2023-05-14T04:25:37.806Z,28.00
2023-05-14T04:28:06.003Z,24.05
2023-05-14T04:30:35.320Z,21.20
2023-05-14T04:33:04.154Z,19.45
2023-05-14T04:35:31.955Z,29.00
2023-05-14T04:38:00.818Z,24.45
2023-05-14T04:40:28.805Z,18.52
2023-05-14T04:42:57.116Z,16.77
2023-05-14T04:45:25.073Z,17.80
2023-05-14T04:47:55.201Z,24.08
2023-05-14T04:50:23.418Z,19.60
2023-05-14T04:52:51.408Z,17.80
2023-05-14T04:55:19.337Z,16.70
2023-05-14T04:57:47.093Z,19.50
2023-05-14T05:00:15.796Z,14.60
2023-05-14T05:02:43.824Z,13.80
2023-05-14T05:05:13.039Z,16.00
2023-05-14T05:07:40.874Z,15.80
2023-05-14T05:10:09.934Z,16.90
2023-05-14T05:12:37.816Z,11.63
2023-05-14T05:15:06.339Z,17.85
2023-05-14T05:17:34.434Z,15.27
2023-05-14T05:20:02.478Z,9.68
2023-05-14T05:22:31.933Z,12.75
2023-05-14T05:25:00.064Z,18.60
2023-05-14T05:27:28.472Z,14.43
2023-05-14T05:29:56.298Z,11.88
2023-05-14T05:32:24.717Z,11.15
2023-05-14T05:34:52.911Z,10.88
2023-05-14T05:37:20.850Z,11.68
2023-05-14T05:39:50.007Z,18.27
2023-05-14T05:42:17.840Z,12.23
2023-05-14T05:44:45.749Z,18.92
2023-05-14T05:47:13.700Z,11.65
2023-05-14T05:49:41.507Z,12.65
2023-05-14T05:52:10.344Z,11.20
2023-05-14T05:54:39.840Z,10.88
2023-05-14T05:57:09.089Z,10.75
2023-05-14T05:59:37.367Z,13.50
2023-05-14T06:02:06.397Z,9.50
2023-05-14T06:04:34.313Z,10.30
2023-05-14T06:07:06.144Z,10.57
2023-05-14T06:09:33.924Z,9.85
2023-05-14T06:12:01.870Z,7.65
2023-05-14T06:14:31.647Z,11.90
2023-05-14T06:16:59.843Z,10.05
2023-05-14T06:19:27.871Z,10.18
2023-05-14T06:21:56.078Z,10.63
2023-05-14T06:24:23.907Z,15.43
2023-05-14T06:26:51.701Z,8.02
2023-05-14T06:29:19.557Z,11.02
2023-05-14T06:31:48.775Z,12.80
2023-05-14T06:34:16.670Z,14.70
2023-05-14T06:36:44.572Z,8.95
2023-05-14T06:39:12.512Z,8.50
2023-05-14T06:41:40.348Z,8.98
2023-05-14T06:44:08.188Z,13.43
2023-05-14T06:46:36.082Z,10.48
2023-05-14T06:49:05.399Z,8.10
2023-05-14T06:51:33.330Z,16.48
2023-05-14T06:54:01.635Z,9.82
2023-05-14T06:56:29.394Z,8.40
2023-05-14T06:58:57.356Z,10.43
2023-05-14T07:01:25.098Z,13.55
2023-05-14T07:03:53.059Z,9.48
2023-05-14T07:06:22.485Z,13.05
2023-05-14T07:08:50.431Z,11.35
2023-05-14T07:11:18.279Z,11.98
2023-05-14T07:13:46.137Z,7.03
2023-05-14T07:16:14.062Z,10.77
2023-05-14T07:18:41.906Z,11.77
2023-05-14T07:21:09.807Z,12.23
2023-05-14T07:23:39.386Z,10.45
2023-05-14T07:26:07.734Z,10.68
2023-05-14T07:28:35.988Z,11.48
2023-05-14T07:31:05.091Z,8.25
2023-05-14T07:33:32.897Z,7.60
2023-05-14T07:36:00.783Z,10.88
2023-05-14T07:38:28.840Z,12.32
2023-05-14T07:40:58.516Z,6.97
2023-05-14T07:43:27.243Z,6.90
2023-05-14T07:45:55.633Z,9.07
2023-05-14T07:48:23.582Z,9.15
2023-05-14T07:50:51.655Z,15.52
2023-05-14T07:53:19.543Z,11.52
2023-05-14T07:55:48.466Z,13.45
2023-05-14T07:58:17.662Z,15.82
2023-05-14T08:00:45.983Z,8.75
2023-05-14T08:03:15.021Z,9.07
2023-05-14T08:05:43.630Z,8.82
2023-05-14T08:08:13.450Z,10.57
2023-05-14T08:10:41.856Z,9.85
2023-05-14T08:13:09.711Z,8.98
2023-05-14T08:15:38.807Z,8.10
2023-05-14T08:18:06.861Z,9.55
2023-05-14T08:20:34.804Z,12.32
2023-05-14T08:23:02.627Z,12.60
2023-05-14T08:25:30.648Z,6.65
2023-05-14T08:27:59.818Z,7.93
2023-05-14T08:30:28.135Z,9.82
2023-05-14T08:32:57.834Z,10.10
2023-05-14T08:35:25.852Z,5.45
2023-05-14T08:37:53.668Z,8.82
2023-05-14T08:40:22.156Z,11.50
2023-05-14T08:42:55.266Z,10.95
2023-05-14T08:45:28.043Z,9.15
2023-05-14T08:47:59.589Z,6.72
2023-05-14T08:50:28.064Z,6.95
2023-05-14T08:52:56.302Z,7.72
2023-05-14T08:55:26.088Z,9.13
2023-05-14T08:57:54.278Z,7.90
2023-05-14T09:00:23.270Z,6.80
2023-05-14T09:02:52.457Z,9.38
2023-05-14T09:05:23.410Z,9.55
2023-05-14T09:07:51.281Z,5.22
2023-05-14T09:10:21.075Z,8.57
2023-05-14T09:12:49.079Z,10.25
2023-05-14T09:15:17.115Z,9.98
2023-05-14T09:17:46.467Z,6.55
2023-05-14T09:20:14.534Z,6.88
2023-05-14T09:22:43.826Z,7.28
2023-05-14T09:25:13.248Z,10.10
2023-05-14T09:27:42.425Z,6.28
2023-05-14T09:30:12.028Z,12.05
2023-05-14T09:32:40.801Z,6.45
2023-05-14T09:35:14.727Z,8.95
2023-05-14T09:37:45.243Z,7.15
2023-05-14T09:40:14.348Z,8.70
2023-05-14T09:42:42.567Z,7.60
2023-05-14T09:45:11.575Z,10.98
2023-05-14T09:47:40.469Z,6.68
2023-05-14T09:50:09.251Z,7.53
2023-05-14T09:52:37.338Z,7.80
2023-05-14T09:55:08.033Z,6.18
2023-05-14T09:57:36.023Z,6.53
2023-05-14T10:00:04.478Z,18.02
2023-05-14T10:02:38.048Z,6.90
2023-05-14T10:05:08.202Z,5.28
2023-05-14T10:07:41.711Z,5.40
2023-05-14T10:10:16.499Z,5.70
2023-05-14T10:12:50.584Z,7.47
2023-05-14T10:15:24.096Z,10.13
2023-05-14T10:17:59.959Z,3.65
2023-05-14T10:20:28.792Z,6.18
2023-05-14T10:22:57.813Z,7.85
2023-05-14T10:25:27.519Z,5.03
2023-05-14T10:27:55.763Z,8.63
2023-05-14T10:30:24.276Z,5.63
2023-05-14T10:33:07.774Z,6.30
2023-05-14T10:35:58.265Z,10.25
2023-05-14T10:38:28.491Z,5.57
2023-05-14T10:41:03.413Z,7.13
2023-05-14T10:43:32.366Z,8.35
2023-05-14T10:46:01.533Z,5.18
2023-05-14T10:48:30.206Z,9.95
2023-05-14T10:50:58.795Z,5.13
2023-05-14T10:53:37.721Z,5.32
2023-05-14T10:56:08.417Z,7.82
2023-05-14T10:58:37.122Z,4.15
2023-05-14T11:01:06.586Z,3.17
2023-05-14T11:03:41.193Z,2.50
2023-05-14T11:06:09.687Z,4.30
2023-05-14T11:08:38.312Z,7.57
2023-05-14T11:11:08.010Z,3.83
2023-05-14T11:13:36.473Z,11.38
2023-05-14T11:16:19.006Z,8.82
2023-05-14T11:18:55.196Z,7.22
2023-05-14T11:21:23.559Z,5.30
2023-05-14T11:23:51.479Z,7.28
2023-05-14T11:26:21.833Z,3.70
2023-05-14T11:28:49.991Z,6.80
2023-05-14T11:31:17.983Z,6.43
2023-05-14T11:33:46.005Z,7.35
2023-05-14T11:36:14.695Z,4.95
2023-05-14T11:38:50.564Z,7.05
2023-05-14T11:41:21.602Z,8.23
2023-05-14T11:43:50.003Z,5.85
2023-05-14T11:46:19.138Z,4.53
2023-05-14T11:48:47.186Z,5.40
2023-05-14T11:51:15.019Z,10.48
2023-05-14T11:53:42.841Z,7.07
2023-05-14T11:56:11.383Z,4.13
2023-05-14T11:58:41.087Z,4.18
2023-05-14T12:01:14.577Z,7.80
2023-05-14T12:03:42.846Z,6.57
2023-05-14T12:06:11.162Z,7.72
2023-05-14T12:08:38.952Z,7.53
2023-05-14T12:11:07.669Z,8.88
2023-05-14T12:13:37.437Z,7.22
2023-05-14T12:16:09.927Z,6.55
2023-05-14T12:18:38.615Z,4.47
2023-05-14T12:21:08.925Z,5.00
2023-05-14T12:23:39.686Z,4.63
2023-05-14T12:26:09.907Z,8.77
2023-05-14T12:28:43.253Z,6.80
2023-05-14T12:31:12.809Z,8.90
2023-05-14T12:33:40.637Z,7.97
2023-05-14T12:38:41.308Z,8.02
2023-05-14T12:41:09.088Z,9.88
2023-05-14T12:43:37.118Z,7.72
2023-05-14T12:46:05.081Z,14.35
2023-05-14T12:48:34.483Z,5.55
2023-05-14T12:51:02.296Z,9.40
2023-05-14T12:53:30.180Z,8.70
2023-05-14T12:55:57.969Z,8.48
2023-05-14T12:58:25.972Z,7.63
2023-05-14T13:00:53.967Z,8.63
2023-05-14T13:03:21.952Z,11.77
2023-05-14T13:05:52.065Z,7.68
2023-05-14T13:08:21.632Z,7.60
2023-05-14T13:10:49.423Z,10.30
2023-05-14T13:13:17.271Z,8.35
2023-05-14T13:15:46.839Z,9.88
2023-05-14T13:18:15.065Z,6.10
2023-05-14T13:20:43.496Z,6.65
2023-05-14T13:23:12.747Z,5.80
2023-05-14T13:25:40.559Z,10.73
2023-05-14T13:28:09.289Z,8.93
2023-05-14T13:30:37.367Z,9.10
2023-05-14T13:33:05.728Z,10.30
2023-05-14T13:35:34.564Z,13.20
2023-05-14T13:38:02.379Z,11.35
2023-05-14T13:40:31.533Z,8.32
2023-05-14T13:42:59.593Z,9.40
2023-05-14T13:45:27.556Z,5.63
2023-05-14T13:47:56.714Z,7.78
2023-05-14T13:50:24.586Z,8.77
2023-05-14T13:52:52.319Z,3.90
2023-05-14T13:55:20.130Z,5.55
2023-05-14T13:57:49.316Z,6.55
2023-05-14T14:00:17.834Z,6.80
2023-05-14T14:02:45.784Z,8.13
2023-05-14T14:05:13.730Z,3.33
2023-05-14T14:07:41.846Z,7.65
2023-05-14T14:10:10.937Z,8.70
2023-05-14T14:12:38.819Z,7.47
2023-05-14T14:15:09.361Z,3.95
2023-05-14T14:17:39.022Z,6.30
2023-05-14T14:20:09.576Z,3.67
2023-05-14T14:22:38.127Z,5.70
2023-05-14T14:25:07.277Z,3.88
2023-05-14T14:27:38.525Z,8.23
2023-05-14T14:30:15.476Z,4.88
2023-05-14T14:32:44.797Z,4.25
2023-05-14T14:35:14.214Z,7.10
2023-05-14T14:37:42.992Z,5.57
2023-05-14T14:40:12.032Z,5.10
2023-05-14T14:42:39.847Z,4.47
2023-05-14T14:45:10.169Z,6.60
2023-05-14T14:47:37.969Z,5.18
2023-05-14T14:50:07.412Z,6.80
2023-05-14T14:52:36.124Z,9.43
2023-05-14T14:55:04.120Z,5.28
2023-05-14T14:57:31.963Z,6.85
2023-05-14T15:00:01.516Z,7.10
2023-05-14T15:02:31.789Z,3.72
2023-05-14T15:04:59.672Z,5.78
2023-05-14T15:07:32.168Z,5.10
2023-05-14T15:09:59.997Z,8.65
2023-05-14T15:12:28.046Z,6.55
2023-05-14T15:14:56.030Z,10.50
2023-05-14T15:17:24.238Z,8.35
2023-05-14T15:19:57.065Z,6.30
2023-05-14T15:22:25.379Z,5.60
2023-05-14T15:24:53.246Z,7.85
2023-05-14T15:27:21.132Z,10.02
2023-05-14T15:29:48.965Z,8.13
2023-05-14T15:32:17.817Z,10.93
2023-05-14T15:34:45.673Z,8.60
2023-05-14T15:37:14.851Z,7.75
2023-05-14T15:39:42.686Z,10.35
2023-05-14T15:42:10.477Z,5.68
2023-05-14T15:44:38.939Z,6.70
2023-05-14T15:47:07.427Z,7.35
2023-05-14T15:49:35.176Z,3.70
2023-05-14T15:52:03.392Z,4.22
2023-05-14T15:54:32.570Z,5.18
2023-05-14T15:57:00.989Z,3.85
2023-05-14T15:59:28.844Z,10.02
2023-05-14T16:01:56.737Z,4.97
2023-05-14T16:04:25.156Z,7.97
2023-05-14T16:06:52.962Z,6.68
2023-05-14T16:09:20.744Z,6.78
2023-05-14T16:11:49.881Z,4.95
2023-05-14T16:14:18.551Z,9.75
2023-05-14T16:16:46.383Z,5.30
2023-05-14T16:19:15.473Z,5.25
2023-05-14T16:21:43.338Z,5.57
2023-05-14T16:24:12.825Z,4.80
2023-05-14T16:26:41.693Z,10.02
2023-05-14T16:29:10.952Z,6.38
2023-05-14T16:31:39.192Z,10.00
2023-05-14T16:34:06.948Z,5.72
2023-05-14T16:36:34.856Z,6.70
2023-05-14T16:41:33.408Z,6.88
2023-05-14T16:44:01.247Z,8.80
2023-05-14T16:46:30.546Z,4.90
2023-05-14T16:48:58.537Z,6.30
2023-05-14T16:51:26.621Z,5.70
2023-05-14T16:53:55.696Z,7.63
2023-05-14T16:56:23.940Z,6.63
2023-05-14T16:58:51.956Z,8.38
2023-05-14T17:01:19.870Z,4.82
2023-05-14T17:03:49.791Z,8.40
2023-05-14T17:06:17.659Z,8.00
2023-05-14T17:08:45.467Z,5.47
2023-05-14T17:11:13.357Z,11.30
2023-05-14T17:13:41.230Z,5.93
2023-05-14T17:16:09.126Z,4.72
2023-05-14T17:18:38.047Z,8.00
2023-05-14T17:21:07.601Z,5.10
2023-05-14T17:23:35.723Z,6.45
2023-05-14T17:26:03.685Z,8.52
2023-05-14T17:28:31.478Z,7.50
2023-05-14T17:30:59.216Z,4.82
2023-05-14T17:33:27.375Z,5.28
2023-05-14T17:35:55.236Z,9.38
2023-05-14T17:38:25.621Z,6.30
2023-05-14T17:40:54.291Z,8.60
2023-05-14T17:43:22.097Z,13.65
2023-05-14T17:45:54.280Z,5.50
2023-05-14T17:48:23.104Z,13.35
2023-05-14T17:50:51.774Z,7.57
2023-05-14T17:53:19.756Z,8.57
2023-05-14T17:55:50.326Z,10.57
2023-05-14T17:58:18.274Z,10.82
2023-05-14T18:00:46.239Z,10.65
2023-05-14T18:03:14.760Z,6.97
2023-05-14T18:05:42.701Z,6.47
2023-05-14T18:08:10.618Z,7.95
2023-05-14T18:10:38.529Z,10.15
2023-05-14T18:13:07.695Z,13.00
2023-05-14T18:15:36.776Z,6.13
2023-05-14T18:18:04.823Z,9.68
2023-05-14T18:20:34.148Z,10.77
2023-05-14T18:23:03.346Z,12.20
2023-05-14T18:25:31.285Z,5.57
2023-05-14T18:27:59.181Z,10.65
2023-05-14T18:30:28.650Z,7.97
2023-05-14T18:32:56.434Z,16.20
2023-05-14T18:35:24.324Z,13.73
2023-05-14T18:37:52.391Z,11.88
2023-05-14T18:40:20.705Z,6.45
2023-05-14T18:42:48.622Z,9.93
2023-05-14T18:45:16.555Z,13.70
2023-05-14T18:47:45.991Z,10.80
2023-05-14T18:50:13.801Z,5.85
2023-05-14T18:52:41.665Z,8.73
2023-05-14T18:55:10.258Z,12.05
2023-05-14T18:57:38.181Z,8.95
2023-05-14T19:00:07.316Z,10.52
2023-05-14T19:02:35.680Z,10.93
2023-05-14T19:05:05.330Z,9.15
2023-05-14T19:07:33.232Z,10.95
2023-05-14T19:10:01.214Z,5.88
2023-05-14T19:12:29.026Z,9.15
2023-05-14T19:14:56.844Z,7.05
2023-05-14T19:17:25.221Z,7.07
2023-05-14T19:19:55.983Z,12.80
2023-05-14T19:22:25.713Z,10.18
2023-05-14T19:24:53.499Z,13.80
2023-05-14T19:27:21.280Z,12.30
2023-05-14T19:29:50.934Z,13.27
2023-05-14T19:32:18.814Z,11.10
2023-05-14T19:34:46.610Z,9.90
2023-05-14T19:37:14.477Z,9.93
2023-05-14T19:39:43.686Z,11.00
2023-05-14T19:42:11.461Z,11.60
2023-05-14T19:44:39.351Z,10.65
2023-05-14T19:47:07.655Z,11.70
2023-05-14T19:49:35.552Z,12.98
2023-05-14T19:52:03.477Z,8.50
2023-05-14T19:54:31.337Z,11.27
2023-05-14T19:57:00.536Z,9.25
2023-05-14T19:59:29.797Z,13.77
2023-05-14T20:01:58.104Z,17.13
2023-05-14T20:04:26.280Z,11.38
2023-05-14T20:06:54.126Z,10.35
2023-05-14T20:09:21.926Z,7.82
2023-05-14T20:11:49.726Z,13.98
2023-05-14T20:14:19.109Z,9.50
2023-05-14T20:16:48.986Z,10.52
2023-05-14T20:19:16.973Z,16.38
2023-05-14T20:21:44.781Z,10.18
2023-05-14T20:24:12.643Z,11.57
2023-05-14T20:26:41.037Z,15.88
2023-05-14T20:29:10.924Z,9.27
2023-05-14T20:31:41.398Z,11.70
2023-05-14T20:34:09.490Z,14.80
2023-05-14T20:36:37.461Z,12.00
2023-05-14T20:39:06.166Z,12.40
2023-05-14T20:41:33.964Z,11.60
2023-05-14T20:44:01.764Z,10.82
2023-05-14T20:46:29.731Z,9.60
2023-05-14T20:49:02.206Z,11.00
2023-05-14T20:51:30.025Z,10.75
2023-05-14T20:53:57.815Z,12.00
2023-05-14T20:56:26.399Z,11.23
2023-05-14T20:58:54.221Z,9.48
2023-05-14T21:01:22.671Z,17.25
2023-05-14T21:03:50.702Z,17.13
2023-05-14T21:06:20.032Z,15.50
2023-05-14T21:08:47.801Z,17.83
2023-05-14T21:11:15.627Z,16.05
2023-05-14T21:13:44.162Z,18.77
2023-05-14T21:16:12.832Z,15.00
2023-05-14T21:18:40.728Z,16.35
2023-05-14T21:21:08.582Z,21.63
2023-05-14T21:23:37.683Z,19.02
2023-05-14T21:26:05.772Z,18.77
2023-05-14T21:28:33.654Z,22.50
2023-05-14T21:31:01.475Z,16.00
2023-05-14T21:33:31.443Z,17.83
2023-05-14T21:35:59.382Z,13.75
2023-05-14T21:38:27.468Z,14.93
2023-05-14T21:40:56.655Z,12.48
2023-05-14T21:43:24.478Z,15.20
2023-05-14T21:45:52.275Z,12.45
2023-05-14T21:48:21.164Z,17.35
2023-05-14T21:50:49.271Z,14.90
2023-05-14T21:53:17.128Z,18.52
2023-05-14T21:55:44.997Z,11.27
2023-05-14T21:58:14.424Z,10.07
2023-05-14T22:00:42.307Z,9.63
2023-05-14T22:03:10.213Z,10.25
2023-05-14T22:05:38.182Z,14.23
2023-05-14T22:08:06.718Z,12.43
2023-05-14T22:10:36.035Z,8.75
2023-05-14T22:13:03.912Z,11.02
2023-05-14T22:15:33.099Z,11.20
2023-05-14T22:18:02.426Z,12.35
2023-05-14T22:20:30.236Z,13.52
2023-05-14T22:22:58.041Z,13.38
2023-05-14T22:25:26.290Z,12.73
2023-05-14T22:27:54.543Z,11.05
2023-05-14T22:30:22.564Z,9.45
2023-05-14T22:32:51.756Z,9.55
2023-05-14T22:35:19.696Z,10.10
2023-05-14T22:37:47.461Z,13.57
2023-05-14T22:40:15.334Z,9.50
2023-05-14T22:42:43.270Z,12.55
2023-05-14T22:45:11.518Z,8.95
2023-05-14T22:47:39.593Z,9.55
2023-05-14T22:50:11.595Z,14.20
2023-05-14T22:52:39.807Z,13.27
2023-05-14T22:55:08.944Z,12.45
2023-05-14T22:57:36.850Z,9.32
2023-05-14T23:00:05.604Z,14.23
2023-05-14T23:02:33.502Z,10.38
2023-05-14T23:05:01.399Z,12.68
2023-05-14T23:07:30.673Z,13.13
2023-05-14T23:09:58.533Z,10.93
2023-05-14T23:12:26.418Z,12.65
2023-05-14T23:14:59.140Z,13.93
2023-05-14T23:17:27.473Z,11.50
2023-05-14T23:19:55.479Z,12.20
2023-05-14T23:22:23.393Z,14.32
2023-05-14T23:24:52.568Z,12.07
2023-05-14T23:27:20.897Z,13.05
2023-05-14T23:29:48.808Z,13.65
2023-05-14T23:32:16.704Z,15.45
2023-05-14T23:34:44.495Z,25.40
2023-05-14T23:37:12.545Z,26.90
2023-05-14T23:39:40.469Z,31.52
2023-05-14T23:42:09.671Z,28.40
2023-05-14T23:44:37.610Z,26.85
2023-05-14T23:47:07.357Z,22.08
2023-05-14T23:49:36.035Z,26.25
2023-05-14T23:52:04.155Z,20.65
2023-05-14T23:54:31.966Z,16.52
2023-05-14T23:56:59.832Z,17.52
2023-05-14T23:59:29.142Z,18.10
